Time;durP1;ratioP1;P1;durP2;ratioP2;P2;SDS_P1;SDS_P2;PMS_P1;PMS_P2;Temp;Humidity;BMP_temperature;BMP_pressure;BME280_temperature;BME280_humidity;BME280_pressure;Samples;Min_cycle;Max_cycle;Signal;HPM_P1;HPM_P2
2022/01/06 00:01:20;;;;;;;8.82;3.28;;;3.10;99.90;;;;;;5029279;28;20029;-82
2022/01/06 00:03:46;;;;;;;6.53;2.65;;;3.00;99.90;;;;;;5025136;28;20053;-82
2022/01/06 00:06:12;;;;;;;6.80;2.42;;;3.10;99.90;;;;;;5026949;28;20025;-82
2022/01/06 00:08:39;;;;;;;4.75;2.67;;;3.10;99.90;;;;;;5029938;28;20219;-82
2022/01/06 00:11:07;;;;;;;5.45;2.80;;;3.10;99.90;;;;;;5028841;28;20018;-82
2022/01/06 00:13:49;;;;;;;3.90;2.10;;;3.20;99.90;;;;;;5027858;28;20494;-83
2022/01/06 00:24:18;;;;;;;5.90;2.42;;;3.20;99.90;;;;;;5033336;28;20044;-83
2022/01/06 00:26:44;;;;;;;4.80;2.70;;;3.20;99.90;;;;;;5031724;28;20100;-83
2022/01/06 00:29:10;;;;;;;4.45;2.15;;;3.20;99.90;;;;;;5029712;28;20033;-82
2022/01/06 00:31:36;;;;;;;4.05;2.10;;;3.20;99.90;;;;;;5029264;28;20025;-82
2022/01/06 00:34:02;;;;;;;4.25;2.83;;;3.20;99.90;;;;;;5028661;28;20039;-82
2022/01/06 00:36:30;;;;;;;6.13;2.15;;;3.20;99.90;;;;;;5029617;28;20022;-82
2022/01/06 00:38:56;;;;;;;3.85;1.88;;;3.30;99.90;;;;;;5028532;28;20049;-82
2022/01/06 00:41:22;;;;;;;3.28;1.92;;;3.30;99.90;;;;;;5030133;28;20116;-82
2022/01/06 00:43:48;;;;;;;3.45;2.13;;;3.30;99.90;;;;;;5028491;28;20113;-82
2022/01/06 00:46:13;;;;;;;4.65;1.80;;;3.30;99.90;;;;;;5028063;28;20445;-82
2022/01/06 00:48:39;;;;;;;3.53;1.98;;;3.40;99.90;;;;;;5028946;28;20025;-82
2022/01/06 00:51:06;;;;;;;3.45;2.20;;;3.40;99.90;;;;;;5028064;28;20458;-83
2022/01/06 00:53:31;;;;;;;3.92;2.03;;;3.40;99.90;;;;;;5030612;28;20021;-83
2022/01/06 00:55:57;;;;;;;6.47;2.35;;;3.40;99.90;;;;;;5028056;28;20491;-83
2022/01/06 00:58:23;;;;;;;5.82;2.33;;;3.40;99.90;;;;;;5028628;28;20041;-83
2022/01/06 01:00:49;;;;;;;6.85;2.42;;;3.40;99.90;;;;;;5027395;28;20017;-83
2022/01/06 01:03:21;;;;;;;6.05;1.90;;;3.40;99.90;;;;;;5026620;28;20422;-83
2022/01/06 01:05:51;;;;;;;6.25;1.95;;;3.40;99.90;;;;;;5031684;28;20022;-83
2022/01/06 01:08:18;;;;;;;6.40;1.88;;;3.30;99.90;;;;;;5028374;28;20025;-83
2022/01/06 01:10:44;;;;;;;3.83;2.15;;;3.30;99.90;;;;;;5027648;28;20057;-83
2022/01/06 01:13:12;;;;;;;6.18;2.30;;;3.20;99.90;;;;;;5029830;28;20025;-83
2022/01/06 01:15:45;;;;;;;3.20;1.80;;;3.20;99.90;;;;;;5032227;28;20083;-84
2022/01/06 01:18:13;;;;;;;4.47;1.83;;;3.30;99.90;;;;;;5027147;28;20026;-83
2022/01/06 01:20:39;;;;;;;4.68;1.98;;;3.30;99.90;;;;;;5030367;28;20030;-84
2022/01/06 01:23:05;;;;;;;3.50;1.77;;;3.20;99.90;;;;;;5027735;28;20383;-83
2022/01/06 01:25:31;;;;;;;3.90;2.25;;;3.30;99.90;;;;;;5028198;28;20106;-83
2022/01/06 01:27:57;;;;;;;3.20;2.17;;;3.20;99.90;;;;;;5027019;28;20037;-84
2022/01/06 01:30:31;;;;;;;5.63;3.20;;;3.10;99.90;;;;;;5028034;28;20022;-83
2022/01/06 01:32:58;;;;;;;7.10;2.13;;;3.00;99.90;;;;;;5031038;28;20038;-83
2022/01/06 01:35:30;;;;;;;4.13;1.90;;;3.10;99.90;;;;;;5028960;28;20032;-84
2022/01/06 01:37:56;;;;;;;6.95;2.90;;;3.00;99.90;;;;;;5028274;28;20053;-82
2022/01/06 01:40:22;;;;;;;7.07;2.10;;;3.00;99.90;;;;;;5030380;28;20152;-83
2022/01/06 01:42:48;;;;;;;5.80;2.45;;;2.90;99.90;;;;;;5028279;28;20033;-83
2022/01/06 01:45:14;;;;;;;6.03;1.92;;;3.10;99.90;;;;;;5028814;28;20025;-83
2022/01/06 01:47:43;;;;;;;3.85;1.67;;;3.00;99.90;;;;;;5023963;28;20056;-83
2022/01/06 01:50:13;;;;;;;7.07;2.10;;;3.00;99.90;;;;;;5027059;28;20028;-82
2022/01/06 01:52:57;;;;;;;4.22;1.98;;;3.10;99.90;;;;;;5027493;28;20026;-83
2022/01/06 01:55:32;;;;;;;10.23;3.40;;;3.00;99.90;;;;;;5022621;28;20025;-83
2022/01/06 01:57:58;;;;;;;7.45;2.17;;;3.00;99.90;;;;;;5027914;28;20025;-83
2022/01/06 02:00:26;;;;;;;5.75;2.70;;;3.10;99.90;;;;;;5027621;28;20445;-82
2022/01/06 02:02:54;;;;;;;4.15;1.80;;;3.00;99.90;;;;;;5031098;28;20090;-82
2022/01/06 02:05:25;;;;;;;6.82;1.92;;;3.10;99.90;;;;;;5028878;28;20037;-82
2022/01/06 02:07:52;;;;;;;3.38;2.00;;;3.10;99.90;;;;;;5026999;28;20024;-82
2022/01/06 02:10:20;;;;;;;11.13;1.83;;;2.90;99.90;;;;;;5025687;28;20048;-83
2022/01/06 02:12:48;;;;;;;5.18;1.90;;;3.00;99.90;;;;;;5026167;28;20022;-83
2022/01/06 02:15:14;;;;;;;4.72;1.75;;;3.10;99.90;;;;;;5027548;28;20032;-83
2022/01/06 02:17:41;;;;;;;3.50;1.63;;;3.00;99.90;;;;;;5028143;28;20021;-84
2022/01/06 02:20:10;;;;;;;3.95;1.80;;;3.00;99.90;;;;;;5027654;28;20057;-84
2022/01/06 02:22:36;;;;;;;5.22;1.83;;;2.90;99.90;;;;;;5027370;28;20148;-83
2022/01/06 02:25:29;;;;;;;4.10;1.83;;;2.90;99.90;;;;;;5027421;28;20164;-83
2022/01/06 02:27:55;;;;;;;5.60;1.70;;;2.90;99.90;;;;;;5025572;28;20090;-83
2022/01/06 02:30:24;;;;;;;4.63;1.80;;;2.90;99.90;;;;;;5031709;28;20037;-83
2022/01/06 02:32:50;;;;;;;4.90;1.80;;;2.90;99.90;;;;;;5029631;28;20068;-83
2022/01/06 02:35:21;;;;;;;6.32;2.45;;;2.90;99.90;;;;;;5027246;28;20040;-83
2022/01/06 02:37:48;;;;;;;5.00;1.75;;;2.80;99.90;;;;;;5025389;28;20022;-83
2022/01/06 02:40:22;;;;;;;5.47;1.77;;;2.90;99.90;;;;;;5025341;28;20029;-83
2022/01/06 02:42:51;;;;;;;6.30;2.10;;;2.70;99.90;;;;;;5026595;28;20041;-83
2022/01/06 02:45:18;;;;;;;5.07;2.58;;;2.80;99.90;;;;;;5026043;28;20026;-82
2022/01/06 02:47:47;;;;;;;4.53;2.20;;;2.80;99.90;;;;;;5022364;28;20140;-83
2022/01/06 02:50:15;;;;;;;6.13;2.25;;;2.80;99.90;;;;;;5026655;28;20048;-83
2022/01/06 02:52:41;;;;;;;5.05;1.98;;;2.80;99.90;;;;;;5025431;28;20025;-83
2022/01/06 02:55:09;;;;;;;14.98;3.20;;;2.80;99.90;;;;;;5023779;28;20360;-83
2022/01/06 02:57:37;;;;;;;4.68;2.17;;;2.70;99.90;;;;;;5025968;28;20032;-82
2022/01/06 03:00:08;;;;;;;3.00;1.48;;;2.60;99.90;;;;;;5024175;28;20111;-83
2022/01/06 03:02:34;;;;;;;5.57;2.25;;;2.60;99.90;;;;;;5026843;28;20080;-82
2022/01/06 03:04:59;;;;;;;4.70;2.10;;;2.40;99.90;;;;;;5024690;28;20502;-82
2022/01/06 03:07:26;;;;;;;4.57;2.08;;;2.20;99.90;;;;;;5025428;28;20402;-82
2022/01/06 03:09:55;;;;;;;6.88;2.67;;;2.20;99.90;;;;;;5026893;28;20021;-82
2022/01/06 03:12:34;;;;;;;8.80;2.40;;;2.30;99.90;;;;;;5025469;28;20083;-82
2022/01/06 03:15:00;;;;;;;3.47;1.83;;;2.30;99.90;;;;;;5026049;28;20022;-82
2022/01/06 03:17:26;;;;;;;4.93;2.42;;;2.20;99.90;;;;;;5026610;28;20037;-82
2022/01/06 03:19:52;;;;;;;5.40;2.53;;;2.20;99.90;;;;;;5031094;28;20108;-82
2022/01/06 03:22:17;;;;;;;5.97;2.55;;;2.20;99.90;;;;;;5025928;28;20109;-82
2022/01/06 03:24:44;;;;;;;4.95;2.22;;;2.10;99.90;;;;;;5026440;28;20021;-84
2022/01/06 03:27:10;;;;;;;6.28;2.25;;;2.10;99.90;;;;;;5026349;28;20018;-83
2022/01/06 03:29:35;;;;;;;4.55;1.77;;;2.00;99.90;;;;;;5029089;28;20043;-83
2022/01/06 03:32:01;;;;;;;3.05;1.35;;;2.10;99.90;;;;;;5024851;28;20406;-83
2022/01/06 03:34:30;;;;;;;4.18;1.88;;;2.20;99.90;;;;;;5029195;28;20192;-82
2022/01/06 03:36:57;;;;;;;6.55;2.28;;;2.20;99.90;;;;;;5029049;28;20109;-81
2022/01/06 03:39:23;;;;;;;8.70;2.03;;;2.10;99.90;;;;;;5028228;28;20046;-81
2022/01/06 03:41:49;;;;;;;3.15;2.08;;;2.10;99.90;;;;;;5030156;28;20043;-83
2022/01/06 03:44:14;;;;;;;6.18;2.22;;;2.10;99.90;;;;;;5034860;28;20017;-83
2022/01/06 03:46:40;;;;;;;3.53;1.77;;;2.20;99.90;;;;;;5023677;28;20049;-83
2022/01/06 03:49:06;;;;;;;6.43;2.30;;;2.20;99.90;;;;;;5028489;28;20405;-84
2022/01/06 03:51:33;;;;;;;6.40;2.03;;;2.20;99.90;;;;;;5028037;28;20060;-84
2022/01/06 03:53:59;;;;;;;4.53;1.70;;;2.20;99.90;;;;;;5029187;28;20030;-84
2022/01/06 03:56:25;;;;;;;4.30;2.28;;;2.10;99.90;;;;;;5030918;28;20418;-84
2022/01/06 03:58:51;;;;;;;5.15;2.28;;;2.20;99.90;;;;;;5025682;28;20088;-84
2022/01/06 04:01:17;;;;;;;5.05;2.10;;;2.10;99.90;;;;;;5028924;28;20049;-84
2022/01/06 04:03:45;;;;;;;5.57;1.83;;;2.20;99.90;;;;;;5029355;28;20028;-83
2022/01/06 04:06:11;;;;;;;5.15;1.58;;;2.10;99.90;;;;;;5027165;28;20491;-83
2022/01/06 04:08:37;;;;;;;4.95;1.90;;;2.10;99.90;;;;;;5034996;28;20026;-83
2022/01/06 04:11:03;;;;;;;4.95;2.10;;;2.20;99.90;;;;;;5029141;28;20029;-84
2022/01/06 04:13:29;;;;;;;4.40;1.85;;;2.20;99.90;;;;;;5023988;28;20014;-83
2022/01/06 04:15:56;;;;;;;6.55;2.00;;;2.10;99.90;;;;;;5027263;28;20075;-83
2022/01/06 04:18:21;;;;;;;6.15;1.90;;;2.00;99.90;;;;;;5027412;28;20034;-83
2022/01/06 04:20:47;;;;;;;4.25;1.60;;;2.10;99.90;;;;;;5029070;28;20552;-83
2022/01/06 04:23:13;;;;;;;4.35;1.90;;;1.90;99.90;;;;;;5027000;28;20449;-83
2022/01/06 04:25:39;;;;;;;8.40;3.05;;;2.00;99.90;;;;;;5029020;28;20013;-83
2022/01/06 04:28:04;;;;;;;6.70;1.77;;;2.00;99.90;;;;;;5029029;28;20483;-83
2022/01/06 04:30:30;;;;;;;8.77;1.77;;;1.90;99.90;;;;;;5028542;28;20414;-83
2022/01/06 04:32:56;;;;;;;4.05;1.90;;;1.80;99.90;;;;;;5044256;28;20491;-83
2022/01/06 04:35:22;;;;;;;8.25;2.60;;;1.80;99.90;;;;;;5029068;28;20098;-83
2022/01/06 04:37:49;;;;;;;8.07;1.80;;;1.80;99.90;;;;;;5026844;28;20029;-82
2022/01/06 04:40:15;;;;;;;5.60;2.00;;;1.80;99.90;;;;;;5029050;28;20143;-83
2022/01/06 04:42:41;;;;;;;8.23;2.10;;;1.80;99.90;;;;;;5026267;28;20026;-83
2022/01/06 04:45:07;;;;;;;4.53;1.92;;;1.80;99.90;;;;;;5026838;28;20028;-82
2022/01/06 04:47:33;;;;;;;5.07;2.28;;;1.80;99.90;;;;;;5026641;28;20049;-81
2022/01/06 04:49:58;;;;;;;6.13;2.28;;;1.80;99.90;;;;;;5025998;28;20402;-87
2022/01/06 04:52:24;;;;;;;5.32;1.60;;;1.80;99.90;;;;;;5028981;28;20408;-86
2022/01/06 04:54:50;;;;;;;4.00;1.67;;;1.80;99.90;;;;;;5028925;28;20061;-86
2022/01/06 04:57:15;;;;;;;4.03;1.80;;;1.80;99.90;;;;;;5027009;28;20407;-87
2022/01/06 04:59:41;;;;;;;2.67;1.42;;;1.80;99.90;;;;;;5035637;28;20029;-87
2022/01/06 05:02:07;;;;;;;3.40;1.40;;;1.90;99.90;;;;;;5026402;28;20179;-85
2022/01/06 05:04:32;;;;;;;7.15;1.95;;;1.90;99.90;;;;;;5026756;28;20501;-86
2022/01/06 05:06:58;;;;;;;2.88;1.30;;;1.80;99.90;;;;;;5028392;28;20022;-86
2022/01/06 05:09:24;;;;;;;5.13;1.83;;;1.70;99.90;;;;;;5020706;28;20128;-85
2022/01/06 05:11:50;;;;;;;4.68;1.48;;;1.80;99.90;;;;;;5028952;28;20029;-83
2022/01/06 05:14:15;;;;;;;6.28;2.03;;;1.80;99.90;;;;;;5025963;28;20060;-83
2022/01/06 05:16:41;;;;;;;6.65;1.55;;;1.80;99.90;;;;;;5026075;28;20037;-84
2022/01/06 05:19:07;;;;;;;3.75;1.40;;;1.70;99.90;;;;;;5027700;28;20029;-84
2022/01/06 05:21:33;;;;;;;3.42;1.50;;;1.70;99.90;;;;;;5026499;28;20214;-84
2022/01/06 05:23:59;;;;;;;5.88;1.90;;;1.60;99.90;;;;;;5036733;28;20139;-83
2022/01/06 05:26:26;;;;;;;5.13;1.42;;;1.60;99.90;;;;;;5028915;28;20033;-83
2022/01/06 05:28:51;;;;;;;5.93;1.80;;;1.60;99.90;;;;;;5026498;28;20036;-83
2022/01/06 05:31:17;;;;;;;4.15;1.80;;;1.60;99.90;;;;;;5026994;28;20033;-83
2022/01/06 05:33:43;;;;;;;3.78;2.10;;;1.60;99.90;;;;;;5026435;28;20065;-83
2022/01/06 05:36:09;;;;;;;3.35;1.90;;;1.60;99.90;;;;;;5027741;28;20116;-84
2022/01/06 05:38:34;;;;;;;4.32;1.92;;;1.60;99.90;;;;;;5028097;28;20060;-84
2022/01/06 05:41:00;;;;;;;6.22;2.10;;;1.50;99.90;;;;;;5024520;28;20315;-84
2022/01/06 05:43:27;;;;;;;3.55;1.80;;;1.50;99.90;;;;;;5027607;28;20031;-84
2022/01/06 05:45:55;;;;;;;3.22;1.67;;;1.50;99.90;;;;;;5027995;28;20109;-83
2022/01/06 05:48:21;;;;;;;5.28;1.98;;;1.60;99.90;;;;;;5027583;28;20039;-82
2022/01/06 05:50:48;;;;;;;6.18;1.65;;;1.70;99.90;;;;;;5030631;28;20049;-82
2022/01/06 05:53:15;;;;;;;4.82;2.08;;;1.50;99.90;;;;;;5021883;28;20022;-82
2022/01/06 05:55:41;;;;;;;4.20;1.95;;;1.60;99.90;;;;;;5022001;28;20028;-82
2022/01/06 05:58:07;;;;;;;5.00;1.90;;;1.40;99.90;;;;;;5027647;28;20457;-82
2022/01/06 06:00:32;;;;;;;4.30;2.10;;;1.30;99.90;;;;;;5027989;28;20443;-82
2022/01/06 06:02:58;;;;;;;5.40;2.13;;;1.40;99.90;;;;;;5028829;28;20022;-83
2022/01/06 06:05:25;;;;;;;5.50;2.08;;;1.30;99.90;;;;;;5028591;28;20450;-83
2022/01/06 06:07:50;;;;;;;6.03;2.35;;;1.30;99.90;;;;;;5018974;28;20022;-83
2022/01/06 06:10:16;;;;;;;6.38;2.45;;;1.30;99.90;;;;;;5036645;28;20083;-82
2022/01/06 06:12:42;;;;;;;5.97;2.55;;;1.30;99.90;;;;;;5027618;28;20033;-80
2022/01/06 06:15:08;;;;;;;5.25;1.90;;;1.40;99.90;;;;;;5026547;28;20072;-84
2022/01/06 06:17:34;;;;;;;5.07;1.73;;;1.30;99.90;;;;;;5027001;28;20068;-84
2022/01/06 06:20:00;;;;;;;3.83;1.75;;;1.20;99.90;;;;;;5028032;28;20036;-84
2022/01/06 06:22:25;;;;;;;6.80;2.00;;;1.20;99.90;;;;;;5026853;28;20288;-82
2022/01/06 06:24:51;;;;;;;3.53;2.13;;;1.20;99.90;;;;;;5020504;28;20029;-81
2022/01/06 06:27:17;;;;;;;7.05;2.85;;;1.20;99.90;;;;;;5026366;28;20071;-81
2022/01/06 06:29:43;;;;;;;8.02;3.10;;;1.10;99.90;;;;;;5028767;28;20029;-81
2022/01/06 06:32:09;;;;;;;6.80;3.17;;;1.20;99.90;;;;;;5026387;28;20305;-81
2022/01/06 06:34:34;;;;;;;6.25;2.75;;;1.10;99.90;;;;;;5026090;28;20444;-80
2022/01/06 06:37:00;;;;;;;6.25;2.95;;;1.20;99.90;;;;;;5027925;28;20036;-80
2022/01/06 06:39:26;;;;;;;6.70;3.00;;;1.20;99.90;;;;;;5021783;28;20098;-80
2022/01/06 06:41:52;;;;;;;11.57;3.45;;;1.10;99.90;;;;;;5028249;28;20446;-84
2022/01/06 06:44:17;;;;;;;6.43;2.78;;;1.30;99.90;;;;;;5031533;28;20396;-83
2022/01/06 06:46:43;;;;;;;8.55;3.80;;;1.20;99.90;;;;;;5023781;28;20045;-85
2022/01/06 06:49:09;;;;;;;6.57;3.28;;;1.20;99.90;;;;;;5023883;28;20082;-85
2022/01/06 06:51:35;;;;;;;6.25;2.58;;;1.20;99.90;;;;;;5024541;28;20033;-85
2022/01/06 06:54:01;;;;;;;4.85;2.95;;;1.20;99.90;;;;;;5023705;28;20594;-85
2022/01/06 06:56:27;;;;;;;9.10;2.58;;;1.20;99.90;;;;;;5026760;28;20029;-83
2022/01/06 06:58:53;;;;;;;7.63;2.78;;;1.20;99.90;;;;;;5025436;28;20032;-83
2022/01/06 07:01:18;;;;;;;5.68;3.15;;;1.20;99.90;;;;;;5026878;28;20171;-83
2022/01/06 07:03:44;;;;;;;6.85;3.05;;;1.20;99.90;;;;;;5028674;28;20519;-83
2022/01/06 07:06:10;;;;;;;2.67;2.30;;;1.10;99.90;;;;;;5022225;28;20021;-83
2022/01/06 07:08:36;;;;;;;6.28;2.15;;;1.20;99.90;;;;;;5028241;28;20033;-83
2022/01/06 07:11:01;;;;;;;7.10;2.60;;;1.10;99.90;;;;;;5026142;28;20060;-83
2022/01/06 07:13:27;;;;;;;5.93;2.58;;;1.10;99.90;;;;;;5020751;28;20121;-82
2022/01/06 07:15:53;;;;;;;3.80;2.30;;;1.00;99.90;;;;;;5019214;28;20061;-82
2022/01/06 07:18:20;;;;;;;3.70;2.28;;;0.90;99.90;;;;;;5029411;28;20496;-82
2022/01/06 07:20:46;;;;;;;5.93;1.85;;;0.90;99.90;;;;;;5032934;28;20171;-82
2022/01/06 07:23:12;;;;;;;6.18;2.13;;;0.90;99.90;;;;;;5030237;28;20414;-83
2022/01/06 07:25:38;;;;;;;5.53;1.88;;;0.90;99.90;;;;;;5030986;28;20041;-82
2022/01/06 07:28:04;;;;;;;5.13;1.92;;;0.90;99.90;;;;;;5024913;28;20772;-82
2022/01/06 07:30:33;;;;;;;9.23;2.63;;;1.00;99.90;;;;;;5026029;28;20030;-82
2022/01/06 07:32:59;;;;;;;4.30;1.73;;;1.00;99.90;;;;;;5024508;28;20037;-82
2022/01/06 07:35:26;;;;;;;3.45;1.90;;;1.00;99.90;;;;;;5028208;28;20029;-82
2022/01/06 07:37:52;;;;;;;6.25;1.75;;;0.90;99.90;;;;;;5025393;28;20065;-81
2022/01/06 07:40:19;;;;;;;7.18;2.15;;;0.90;99.90;;;;;;5028801;28;20034;-82
2022/01/06 07:42:45;;;;;;;5.13;1.80;;;1.00;99.90;;;;;;5028930;28;20022;-81
2022/01/06 07:45:11;;;;;;;6.28;2.60;;;1.10;99.90;;;;;;5029108;28;20108;-81
2022/01/06 07:47:43;;;;;;;5.25;2.38;;;1.10;99.90;;;;;;5031276;28;20033;-82
2022/01/06 07:50:09;;;;;;;7.28;2.55;;;1.20;99.90;;;;;;5029580;28;20045;-81
2022/01/06 07:52:35;;;;;;;3.92;1.88;;;1.20;99.90;;;;;;5028517;28;20112;-81
2022/01/06 07:55:01;;;;;;;3.25;1.35;;;1.20;99.90;;;;;;5027665;28;20433;-81
2022/01/06 07:57:27;;;;;;;6.47;1.83;;;1.20;99.90;;;;;;5021679;28;20045;-81
2022/01/06 07:59:52;;;;;;;1.95;1.42;;;1.40;99.90;;;;;;5031088;28;20450;-81
2022/01/06 08:02:18;;;;;;;3.60;2.28;;;1.50;99.90;;;;;;5027375;28;20087;-81
2022/01/06 08:04:44;;;;;;;4.68;1.90;;;1.90;99.90;;;;;;5027051;28;20371;-81
2022/01/06 08:07:09;;;;;;;4.38;1.80;;;2.20;99.90;;;;;;5028537;28;20394;-81
2022/01/06 08:09:35;;;;;;;5.25;2.25;;;2.20;99.90;;;;;;5025858;28;20445;-81
2022/01/06 08:12:01;;;;;;;4.95;1.60;;;2.00;99.90;;;;;;5028270;28;20458;-81
2022/01/06 08:14:27;;;;;;;5.05;1.80;;;1.80;99.90;;;;;;5018960;28;20494;-81
2022/01/06 08:16:52;;;;;;;4.95;2.42;;;1.80;99.90;;;;;;5027112;28;20022;-81
2022/01/06 08:19:18;;;;;;;4.05;1.70;;;1.90;99.90;;;;;;5028926;28;20025;-81
2022/01/06 08:21:44;;;;;;;5.25;2.40;;;2.00;99.90;;;;;;5029970;28;20421;-81
2022/01/06 08:24:10;;;;;;;7.80;2.40;;;2.10;99.90;;;;;;5027687;28;20361;-81
2022/01/06 08:26:36;;;;;;;3.42;2.13;;;2.20;99.90;;;;;;5031900;28;20041;-82
2022/01/06 08:29:01;;;;;;;4.03;2.03;;;2.30;99.90;;;;;;5028558;28;20468;-81
2022/01/06 08:31:27;;;;;;;5.50;2.15;;;2.50;99.90;;;;;;5028749;28;20491;-81
2022/01/06 08:33:53;;;;;;;4.40;2.10;;;2.20;99.90;;;;;;5027519;28;20033;-82
2022/01/06 08:36:18;;;;;;;5.07;2.67;;;2.10;99.90;;;;;;5026737;28;20060;-81
2022/01/06 08:38:44;;;;;;;6.97;2.40;;;2.10;99.90;;;;;;5030532;28;20575;-81
2022/01/06 08:41:10;;;;;;;5.15;2.35;;;2.20;99.90;;;;;;5027202;28;20514;-81
2022/01/06 08:43:36;;;;;;;4.28;2.13;;;2.30;99.90;;;;;;5024207;28;20462;-81
2022/01/06 08:46:02;;;;;;;7.82;3.05;;;2.50;99.90;;;;;;5031475;28;20398;-81
2022/01/06 08:48:30;;;;;;;8.40;2.78;;;2.40;99.90;;;;;;5029708;28;20025;-81
2022/01/06 08:50:56;;;;;;;7.82;3.45;;;2.20;99.90;;;;;;5025098;28;20479;-81
2022/01/06 08:53:23;;;;;;;8.98;3.00;;;2.20;99.90;;;;;;5027335;28;20033;-81
2022/01/06 08:55:49;;;;;;;5.45;2.97;;;2.50;99.90;;;;;;5022724;28;20089;-81
2022/01/06 08:58:15;;;;;;;5.13;3.08;;;2.80;99.90;;;;;;5018173;28;20437;-81
2022/01/06 09:00:40;;;;;;;9.60;2.90;;;3.30;99.90;;;;;;5029025;28;20053;-81
2022/01/06 09:03:07;;;;;;;8.88;2.35;;;3.90;99.90;;;;;;5025955;28;20086;-81
2022/01/06 09:05:37;;;;;;;9.40;3.47;;;4.30;99.90;;;;;;5029770;28;20029;-81
2022/01/06 09:08:06;;;;;;;4.50;2.50;;;5.10;99.90;;;;;;5027517;28;20018;-81
2022/01/06 09:10:34;;;;;;;9.80;2.88;;;4.70;99.90;;;;;;5032554;28;20029;-81
2022/01/06 09:13:04;;;;;;;8.75;2.75;;;4.80;99.90;;;;;;5030450;28;20036;-82
2022/01/06 09:15:30;;;;;;;7.67;2.40;;;7.30;99.90;;;;;;5018487;28;20037;-82
2022/01/06 09:17:56;;;;;;;6.07;3.15;;;9.50;99.00;;;;;;5027975;28;20061;-82
2022/01/06 09:20:22;;;;;;;6.72;1.88;;;10.80;96.50;;;;;;5020040;28;20064;-79
2022/01/06 09:22:48;;;;;;;5.88;2.53;;;11.10;95.30;;;;;;5024362;28;20029;-82
2022/01/06 09:25:15;;;;;;;6.25;2.40;;;11.10;94.30;;;;;;5026515;28;20018;-83
2022/01/06 09:27:42;;;;;;;7.13;2.70;;;7.90;97.60;;;;;;5027691;28;20025;-84
2022/01/06 09:30:10;;;;;;;5.35;2.40;;;6.30;99.90;;;;;;5027638;28;20498;-84
2022/01/06 09:32:36;;;;;;;5.28;2.35;;;5.80;99.90;;;;;;5030077;28;20029;-84
2022/01/06 09:35:02;;;;;;;4.13;2.22;;;5.00;99.90;;;;;;5028155;28;20087;-84
2022/01/06 09:37:28;;;;;;;7.07;2.25;;;4.50;99.90;;;;;;5027171;28;20032;-84
2022/01/06 09:39:54;;;;;;;4.85;2.10;;;4.50;99.90;;;;;;5026698;28;20046;-84
2022/01/06 09:42:20;;;;;;;6.53;2.20;;;4.60;99.90;;;;;;5025712;28;20569;-83
2022/01/06 09:44:50;;;;;;;7.15;2.45;;;4.40;99.90;;;;;;5029546;28;20049;-84
2022/01/06 09:47:17;;;;;;;4.45;2.25;;;4.30;99.90;;;;;;5027697;28;20084;-84
2022/01/06 09:49:44;;;;;;;4.82;2.50;;;4.40;99.90;;;;;;5028564;28;20989;-84
2022/01/06 09:52:10;;;;;;;4.97;2.35;;;4.60;99.90;;;;;;5027797;28;20148;-84
2022/01/06 09:54:37;;;;;;;7.35;2.83;;;4.60;99.90;;;;;;5026479;28;20484;-84
2022/01/06 09:57:04;;;;;;;4.88;2.08;;;4.60;99.90;;;;;;5029222;28;20021;-84
2022/01/06 09:59:30;;;;;;;5.95;2.30;;;4.70;99.90;;;;;;5029503;28;20067;-84
2022/01/06 10:01:55;;;;;;;6.80;2.05;;;4.80;99.90;;;;;;5026678;28;20025;-84
2022/01/06 10:04:30;;;;;;;4.90;2.40;;;4.80;99.90;;;;;;5030617;28;20037;-84
2022/01/06 10:06:59;;;;;;;6.70;2.40;;;5.00;99.90;;;;;;5028331;28;20033;-84
2022/01/06 10:09:25;;;;;;;5.18;2.78;;;4.90;99.90;;;;;;5027236;28;20087;-85
2022/01/06 10:11:55;;;;;;;8.35;1.80;;;4.90;99.90;;;;;;5030182;28;20034;-84
2022/01/06 10:14:30;;;;;;;8.23;2.15;;;4.90;99.90;;;;;;5026248;28;20029;-84
2022/01/06 10:16:57;;;;;;;6.68;2.08;;;5.00;99.90;;;;;;5023423;28;20033;-84
2022/01/06 10:19:23;;;;;;;6.45;1.88;;;5.00;99.90;;;;;;5027454;28;20036;-84
2022/01/06 10:21:57;;;;;;;5.05;1.73;;;5.10;99.90;;;;;;5027714;28;20101;-85
2022/01/06 10:24:27;;;;;;;3.08;1.77;;;5.10;99.90;;;;;;5026481;28;20017;-85
2022/01/06 10:27:07;;;;;;;5.53;2.15;;;5.10;99.90;;;;;;5032864;28;20196;-85
2022/01/06 10:29:59;;;;;;;4.53;1.58;;;5.10;99.90;;;;;;5029328;28;20029;-85
2022/01/06 10:32:25;;;;;;;4.85;2.03;;;5.20;99.90;;;;;;5025263;28;20044;-85
2022/01/06 10:34:51;;;;;;;4.43;1.95;;;5.20;99.90;;;;;;5027089;28;20033;-86
2022/01/06 10:37:26;;;;;;;3.28;1.80;;;5.20;99.90;;;;;;5026683;28;20029;-85
2022/01/06 10:40:02;;;;;;;4.82;2.05;;;5.30;99.90;;;;;;5026879;28;20099;-85
2022/01/06 10:42:30;;;;;;;7.80;2.33;;;5.40;99.90;;;;;;5028771;28;20022;-85
2022/01/06 10:45:00;;;;;;;9.38;1.83;;;5.50;99.90;;;;;;5030258;28;20021;-85
2022/01/06 10:47:42;;;;;;;6.03;2.17;;;5.40;99.90;;;;;;5030919;28;20052;-85
2022/01/06 10:50:24;;;;;;;4.60;1.60;;;5.60;99.90;;;;;;5034870;28;20025;-86
2022/01/06 10:52:57;;;;;;;5.25;1.73;;;5.70;99.90;;;;;;5025422;28;20025;-87
2022/01/06 10:55:33;;;;;;;7.32;1.95;;;5.70;99.90;;;;;;5030635;28;20030;-86
2022/01/06 10:58:11;;;;;;;10.70;2.20;;;5.80;99.90;;;;;;5030879;28;20029;-86
2022/01/06 11:00:48;;;;;;;11.48;3.58;;;5.80;99.90;;;;;;5026842;28;20025;-86
2022/01/06 11:03:19;;;;;;;7.07;2.85;;;5.80;99.90;;;;;;5030415;28;20487;-86
2022/01/06 11:05:52;;;;;;;;;;;6.00;99.90;;;;;;5033725;28;20014;-86
2022/01/06 11:08:25;;;;;;;8.60;2.58;;;6.00;99.90;;;;;;5029594;28;19912;-87
2022/01/06 11:13:40;;;;;;;5.95;1.85;;;6.10;99.90;;;;;;5026232;28;20033;-87
2022/01/06 11:16:07;;;;;;;7.07;2.17;;;6.10;99.90;;;;;;5034826;28;20028;-87
2022/01/06 11:18:34;;;;;;;5.63;2.67;;;6.00;99.90;;;;;;5030606;28;20115;-87
2022/01/06 11:21:09;;;;;;;5.50;1.55;;;5.90;99.90;;;;;;5027762;28;20030;-87
2022/01/06 11:23:36;;;;;;;6.82;1.85;;;5.90;99.90;;;;;;5032023;28;20029;-87
2022/01/06 11:26:11;;;;;;;9.73;2.10;;;5.90;99.90;;;;;;5030337;28;20028;-87
2022/01/06 11:28:38;;;;;;;7.15;1.98;;;6.20;99.90;;;;;;5029961;28;20160;-87
2022/01/06 11:31:16;;;;;;;6.00;2.08;;;6.30;99.90;;;;;;5029796;28;20348;-87
2022/01/06 11:33:43;;;;;;;6.05;1.77;;;6.20;99.90;;;;;;5029656;28;20028;-87
2022/01/06 11:36:31;;;;;;;8.75;2.15;;;6.40;99.90;;;;;;5030127;28;20029;-87
2022/01/06 11:38:59;;;;;;;7.93;2.17;;;6.50;99.90;;;;;;5027393;28;20050;-88
2022/01/06 11:41:35;;;;;;;6.47;1.95;;;6.40;99.90;;;;;;5032593;28;20033;-87
2022/01/06 11:44:02;;;;;;;7.82;2.20;;;6.40;99.90;;;;;;5027347;28;20125;-87
2022/01/06 11:46:50;;;;;;;6.90;1.83;;;6.40;99.90;;;;;;5029355;28;20025;-87
2022/01/06 11:49:28;;;;;;;5.18;1.70;;;6.40;99.90;;;;;;5030406;28;20521;-87
2022/01/06 11:52:14;;;;;;;6.28;1.58;;;6.20;99.90;;;;;;5030246;28;20022;-87
2022/01/06 11:54:46;;;;;;;7.43;2.08;;;6.30;99.90;;;;;;5025922;28;20533;-88
2022/01/06 11:57:12;;;;;;;9.13;2.38;;;6.50;99.90;;;;;;5043477;28;20514;-88
2022/01/06 11:59:38;;;;;;;6.90;2.20;;;6.40;99.90;;;;;;5030666;28;20035;-88
2022/01/06 12:02:04;;;;;;;11.27;1.88;;;6.50;99.90;;;;;;5033515;28;20032;-88
2022/01/06 12:04:30;;;;;;;6.22;1.90;;;6.50;99.90;;;;;;5028082;28;20030;-87
2022/01/06 12:07:07;;;;;;;10.88;2.17;;;6.50;99.90;;;;;;5026093;28;20022;-88
2022/01/06 12:09:33;;;;;;;8.93;2.17;;;6.70;99.90;;;;;;5030036;28;20034;-88
2022/01/06 12:12:05;;;;;;;5.20;1.98;;;6.40;99.90;;;;;;5031185;28;20029;-88
2022/01/06 12:14:32;;;;;;;4.88;1.52;;;6.40;99.90;;;;;;5030385;28;20037;-88
2022/01/06 12:17:10;;;;;;;6.78;2.42;;;6.60;99.90;;;;;;5030096;28;20021;-88
2022/01/06 12:19:37;;;;;;;11.05;1.92;;;6.60;99.90;;;;;;5025654;28;20032;-88
2022/01/06 12:22:09;;;;;;;4.00;2.50;;;6.60;99.90;;;;;;5024961;28;20029;-88
2022/01/06 12:24:34;;;;;;;6.88;1.58;;;6.70;99.90;;;;;;5024397;28;20241;-88
2022/01/06 12:27:04;;;;;;;6.25;1.77;;;6.60;99.90;;;;;;5032627;28;20059;-88
2022/01/06 12:29:34;;;;;;;4.82;1.70;;;6.70;99.90;;;;;;5030927;28;20030;-88
2022/01/06 12:32:08;;;;;;;10.25;1.95;;;6.40;99.90;;;;;;5033277;28;20112;-88
2022/01/06 12:34:34;;;;;;;8.50;2.25;;;6.50;99.90;;;;;;5029611;28;20068;-88
2022/01/06 12:37:00;;;;;;;7.00;1.73;;;6.60;99.90;;;;;;5029950;28;20030;-88
2022/01/06 12:39:27;;;;;;;6.63;1.88;;;6.50;99.90;;;;;;5028821;28;20462;-88
2022/01/06 12:41:53;;;;;;;6.43;1.85;;;6.40;99.90;;;;;;5031115;28;20026;-88
2022/01/06 12:44:24;;;;;;;4.65;1.55;;;6.20;99.90;;;;;;5029358;28;20406;-88
2022/01/06 12:46:50;;;;;;;8.48;2.25;;;6.30;99.90;;;;;;5030406;28;20069;-89
2022/01/06 12:49:16;;;;;;;8.77;1.65;;;6.30;99.90;;;;;;5029450;28;20041;-88
2022/01/06 12:51:46;;;;;;;5.03;2.20;;;6.70;99.90;;;;;;5028480;28;20063;-89
2022/01/06 12:54:16;;;;;;;7.03;1.58;;;6.70;99.90;;;;;;5029977;28;20036;-88
2022/01/06 12:57:00;;;;;;;5.65;1.73;;;6.50;99.90;;;;;;5038498;28;20025;-89
2022/01/06 12:59:34;;;;;;;1.98;1.60;;;6.40;99.90;;;;;;5024580;28;20040;-88
2022/01/06 13:02:05;;;;;;;7.03;2.53;;;6.40;99.90;;;;;;5028513;28;20028;-88
2022/01/06 13:04:33;;;;;;;5.57;1.90;;;6.60;99.90;;;;;;5027805;28;20026;-88
2022/01/06 13:07:02;;;;;;;5.30;1.48;;;6.70;99.90;;;;;;5028133;28;20029;-88
2022/01/06 13:09:32;;;;;;;4.40;1.52;;;6.80;99.90;;;;;;5027690;28;20038;-89
2022/01/06 13:12:04;;;;;;;6.18;1.45;;;6.80;99.60;;;;;;5026789;28;20076;-88